CEB911 RPLL-RPVE
Flight info
| Callsign | CEB911 |
|---|---|
| Flight time | 0h 50m |
| Altitude | 21000 |
| Route | VERDE2A VERDE W24 TAPER TAPER7A |
| Aircraft | A21N/M-SDE3FGHIRWY/LB1 |
Departure
| Time | 2026-04-25 13:20 |
|---|---|
| Airport | Ninoy Aquino International Airport (RPLL) |
Arrival
| Time | 2026-04-25 14:10 |
|---|---|
| Airport | Godofredo P. Ramos Airport (RPVE) |
| Time | Latitude | Longitude | Altitude | Speed | Heading |
|---|---|---|---|---|---|
| 2026-04-25 12:12 | 14.51703 | 121.01659 | 82 ft | 0 kts | 225° |
| 2026-04-25 12:57 | 14.51706 | 121.01662 | 82 ft | 2 kts | 225° |
| 2026-04-25 12:57 | 14.51717 | 121.01673 | 82 ft | 2 kts | 225° |
| 2026-04-25 12:57 | 14.51727 | 121.01684 | 82 ft | 2 kts | 225° |
| 2026-04-25 12:57 | 14.51738 | 121.01695 | 82 ft | 2 kts | 225° |
| 2026-04-25 12:58 | 14.51745 | 121.01702 | 82 ft | 2 kts | 224° |
| 2026-04-25 12:58 | 14.51758 | 121.01707 | 82 ft | 2 kts | 171° |
| 2026-04-25 12:58 | 14.51769 | 121.01702 | 82 ft | 0 kts | 138° |
| 2026-04-25 12:58 | 14.51766 | 121.01704 | 82 ft | 3 kts | 141° |
| 2026-04-25 12:59 | 14.51754 | 121.01717 | 82 ft | 0 kts | 135° |
| 2026-04-25 13:01 | 14.51748 | 121.01723 | 82 ft | 2 kts | 135° |
| 2026-04-25 13:01 | 14.51738 | 121.01733 | 82 ft | 2 kts | 136° |
| 2026-04-25 13:02 | 14.51718 | 121.01752 | 82 ft | 5 kts | 136° |
| 2026-04-25 13:02 | 14.51677 | 121.01782 | 82 ft | 8 kts | 163° |
| 2026-04-25 13:02 | 14.51609 | 121.01762 | 82 ft | 12 kts | 225° |
| 2026-04-25 13:02 | 14.51547 | 121.01698 | 82 ft | 12 kts | 224° |
| 2026-04-25 13:03 | 14.51516 | 121.01666 | 82 ft | 1 kts | 225° |
| 2026-04-25 13:04 | 14.51514 | 121.01664 | 82 ft | 1 kts | 223° |
| 2026-04-25 13:04 | 14.51496 | 121.01646 | 82 ft | 5 kts | 224° |
| 2026-04-25 13:04 | 14.51458 | 121.01611 | 82 ft | 8 kts | 213° |
| 2026-04-25 13:04 | 14.51395 | 121.01575 | 82 ft | 11 kts | 187° |
| 2026-04-25 13:05 | 14.51323 | 121.01622 | 82 ft | 14 kts | 135° |
| 2026-04-25 13:05 | 14.51248 | 121.01701 | 82 ft | 16 kts | 135° |
| 2026-04-25 13:05 | 14.51161 | 121.01789 | 82 ft | 18 kts | 136° |
| 2026-04-25 13:05 | 14.51067 | 121.01887 | 82 ft | 19 kts | 134° |
| 2026-04-25 13:06 | 14.50970 | 121.01862 | 82 ft | 17 kts | 242° |
| 2026-04-25 13:06 | 14.50911 | 121.01753 | 82 ft | 17 kts | 242° |
| 2026-04-25 13:06 | 14.50844 | 121.01634 | 82 ft | 20 kts | 240° |
| 2026-04-25 13:06 | 14.50772 | 121.01505 | 82 ft | 21 kts | 240° |
| 2026-04-25 13:07 | 14.50701 | 121.01378 | 82 ft | 19 kts | 240° |
| 2026-04-25 13:07 | 14.50633 | 121.01256 | 82 ft | 19 kts | 240° |
| 2026-04-25 13:07 | 14.50568 | 121.01138 | 82 ft | 18 kts | 240° |
| 2026-04-25 13:07 | 14.50505 | 121.01025 | 82 ft | 18 kts | 240° |
| 2026-04-25 13:08 | 14.50440 | 121.00906 | 82 ft | 19 kts | 239° |
| 2026-04-25 13:08 | 14.50369 | 121.00782 | 82 ft | 20 kts | 240° |
| 2026-04-25 13:08 | 14.50299 | 121.00658 | 82 ft | 19 kts | 239° |
| 2026-04-25 13:08 | 14.50234 | 121.00540 | 82 ft | 18 kts | 242° |
| 2026-04-25 13:09 | 14.50185 | 121.00451 | 82 ft | 11 kts | 240° |
| 2026-04-25 13:09 | 14.50145 | 121.00377 | 82 ft | 12 kts | 240° |
| 2026-04-25 13:09 | 14.50102 | 121.00299 | 82 ft | 12 kts | 240° |
| 2026-04-25 13:09 | 14.50058 | 121.00219 | 82 ft | 12 kts | 240° |
| 2026-04-25 13:10 | 14.50027 | 121.00163 | 82 ft | 0 kts | 240° |
| 2026-04-25 13:10 | 14.50027 | 121.00162 | 82 ft | 0 kts | 240° |
| 2026-04-25 13:10 | 14.50024 | 121.00156 | 82 ft | 1 kts | 240° |
| 2026-04-25 13:11 | 14.50016 | 121.00142 | 82 ft | 3 kts | 240° |
| 2026-04-25 13:11 | 14.50001 | 121.00116 | 82 ft | 4 kts | 240° |
| 2026-04-25 13:11 | 14.49985 | 121.00088 | 82 ft | 3 kts | 240° |
| 2026-04-25 13:11 | 14.49971 | 121.00063 | 82 ft | 0 kts | 240° |
| 2026-04-25 13:12 | 14.49969 | 121.00059 | 82 ft | 1 kts | 240° |
| 2026-04-25 13:12 | 14.49962 | 121.00047 | 82 ft | 2 kts | 240° |
| 2026-04-25 13:12 | 14.49953 | 121.00030 | 82 ft | 0 kts | 240° |
| 2026-04-25 13:13 | 14.49952 | 121.00030 | 82 ft | 0 kts | 240° |
| 2026-04-25 13:13 | 14.49948 | 121.00021 | 82 ft | 1 kts | 240° |
| 2026-04-25 13:14 | 14.49940 | 121.00008 | 82 ft | 2 kts | 240° |
| 2026-04-25 13:14 | 14.49929 | 120.99987 | 82 ft | 3 kts | 238° |
| 2026-04-25 13:14 | 14.49907 | 120.99967 | 82 ft | 4 kts | 206° |
| 2026-04-25 13:14 | 14.49882 | 120.99965 | 82 ft | 0 kts | 156° |
| 2026-04-25 13:16 | 14.49881 | 120.99966 | 82 ft | 0 kts | 156° |
| 2026-04-25 13:16 | 14.49880 | 120.99966 | 82 ft | 0 kts | 156° |
| 2026-04-25 13:16 | 14.49878 | 120.99966 | 82 ft | 0 kts | 156° |
| 2026-04-25 13:16 | 14.49866 | 120.99972 | 82 ft | 3 kts | 154° |
| 2026-04-25 13:17 | 14.49840 | 120.99986 | 82 ft | 5 kts | 150° |
| 2026-04-25 13:17 | 14.49807 | 121.00023 | 82 ft | 8 kts | 107° |
| 2026-04-25 13:17 | 14.49822 | 121.00081 | 82 ft | 8 kts | 61° |
| 2026-04-25 13:17 | 14.49842 | 121.00116 | 82 ft | 0 kts | 61° |
| 2026-04-25 13:19 | 14.49859 | 121.00149 | 82 ft | 23 kts | 61° |
| 2026-04-25 13:19 | 14.50077 | 121.00542 | 82 ft | 99 kts | 59° |
| 2026-04-25 13:19 | 14.50533 | 121.01364 | 83 ft | 160 kts | 60° |
| 2026-04-25 13:19 | 14.50929 | 121.02073 | 241 ft | 177 kts | 63° |
| 2026-04-25 13:20 | 14.51734 | 121.03532 | 1127 ft | 177 kts | 61° |
| 2026-04-25 13:20 | 14.52327 | 121.04559 | 1765 ft | 165 kts | 61° |
| 2026-04-25 13:20 | 14.52886 | 121.05591 | 2120 ft | 170 kts | 61° |
| 2026-04-25 13:20 | 14.53515 | 121.06698 | 2353 ft | 184 kts | 60° |
| 2026-04-25 13:21 | 14.54180 | 121.07869 | 2642 ft | 197 kts | 60° |
| 2026-04-25 13:21 | 14.54885 | 121.09128 | 2922 ft | 211 kts | 60° |
| 2026-04-25 13:21 | 14.55650 | 121.10508 | 3161 ft | 231 kts | 60° |
| 2026-04-25 13:21 | 14.56472 | 121.11996 | 3480 ft | 248 kts | 60° |
| 2026-04-25 13:22 | 14.57349 | 121.13591 | 3890 ft | 261 kts | 60° |
| 2026-04-25 13:22 | 14.58255 | 121.15238 | 4537 ft | 265 kts | 60° |
| 2026-04-25 13:22 | 14.59168 | 121.16887 | 5223 ft | 268 kts | 60° |
| 2026-04-25 13:23 | 14.61049 | 121.20249 | 6535 ft | 275 kts | 60° |
| 2026-04-25 13:23 | 14.62007 | 121.21953 | 7188 ft | 278 kts | 60° |
| 2026-04-25 13:23 | 14.62973 | 121.23690 | 7821 ft | 281 kts | 63° |
| 2026-04-25 13:23 | 14.63524 | 121.25592 | 8394 ft | 284 kts | 87° |
| 2026-04-25 13:24 | 14.63194 | 121.27583 | 8999 ft | 288 kts | 113° |
| 2026-04-25 13:24 | 14.62020 | 121.29257 | 9566 ft | 293 kts | 138° |
| 2026-04-25 13:24 | 14.60358 | 121.30516 | 10155 ft | 296 kts | 146° |
| 2026-04-25 13:24 | 14.58612 | 121.31674 | 10492 ft | 308 kts | 147° |
| 2026-04-25 13:25 | 14.56753 | 121.32886 | 10756 ft | 322 kts | 147° |
| 2026-04-25 13:25 | 14.54803 | 121.34156 | 10957 ft | 338 kts | 147° |
| 2026-04-25 13:25 | 14.52748 | 121.35500 | 10979 ft | 359 kts | 147° |
| 2026-04-25 13:25 | 14.50602 | 121.36905 | 10978 ft | 375 kts | 147° |
| 2026-04-25 13:26 | 14.48370 | 121.38367 | 10977 ft | 378 kts | 147° |
| 2026-04-25 13:26 | 14.46027 | 121.39558 | 10964 ft | 379 kts | 162° |
| 2026-04-25 13:26 | 14.43383 | 121.39912 | 10971 ft | 379 kts | 182° |
| 2026-04-25 13:26 | 14.40830 | 121.39346 | 10978 ft | 380 kts | 202° |
| 2026-04-25 13:27 | 14.38581 | 121.37923 | 10978 ft | 380 kts | 221° |
| 2026-04-25 13:27 | 14.36875 | 121.35853 | 11122 ft | 385 kts | 235° |
| 2026-04-25 13:27 | 14.35379 | 121.33564 | 11705 ft | 384 kts | 237° |
| 2026-04-25 13:27 | 14.33912 | 121.31245 | 12296 ft | 384 kts | 237° |
| 2026-04-25 13:28 | 14.32461 | 121.28938 | 12816 ft | 385 kts | 237° |
| 2026-04-25 13:28 | 14.31502 | 121.27410 | 13128 ft | 386 kts | 237° |
| 2026-04-25 13:28 | 14.29546 | 121.24305 | 13739 ft | 388 kts | 237° |
| 2026-04-25 13:28 | 14.28021 | 121.22001 | 14131 ft | 391 kts | 231° |
| 2026-04-25 13:29 | 14.25916 | 121.20222 | 14473 ft | 396 kts | 208° |
| 2026-04-25 13:29 | 14.23273 | 121.19393 | 14911 ft | 398 kts | 191° |
| 2026-04-25 13:29 | 14.20544 | 121.18903 | 15313 ft | 400 kts | 191° |
| 2026-04-25 13:30 | 14.14997 | 121.17791 | 16019 ft | 406 kts | 193° |
| 2026-04-25 13:30 | 14.13147 | 121.17394 | 16262 ft | 408 kts | 193° |
| 2026-04-25 13:30 | 14.09443 | 121.16576 | 16719 ft | 411 kts | 193° |
| 2026-04-25 13:31 | 14.03816 | 121.15310 | 17389 ft | 415 kts | 193° |
| 2026-04-25 13:31 | 14.00990 | 121.14668 | 17729 ft | 416 kts | 193° |
| 2026-04-25 13:31 | 13.98171 | 121.14025 | 18066 ft | 418 kts | 193° |
| 2026-04-25 13:31 | 13.95287 | 121.13369 | 18415 ft | 419 kts | 193° |
| 2026-04-25 13:32 | 13.92432 | 121.12719 | 18746 ft | 420 kts | 194° |
| 2026-04-25 13:32 | 13.89584 | 121.12070 | 19062 ft | 422 kts | 194° |
| 2026-04-25 13:32 | 13.86727 | 121.11419 | 19356 ft | 423 kts | 193° |
| 2026-04-25 13:32 | 13.83833 | 121.10761 | 19651 ft | 425 kts | 194° |
| 2026-04-25 13:33 | 13.80941 | 121.10101 | 19937 ft | 426 kts | 194° |
| 2026-04-25 13:33 | 13.78010 | 121.09434 | 20201 ft | 428 kts | 194° |
| 2026-04-25 13:33 | 13.75093 | 121.08770 | 20468 ft | 430 kts | 193° |
| 2026-04-25 13:33 | 13.73141 | 121.08325 | 20637 ft | 432 kts | 193° |
| 2026-04-25 13:34 | 13.69209 | 121.07431 | 20917 ft | 433 kts | 194° |
| 2026-04-25 13:34 | 13.66267 | 121.06763 | 20940 ft | 433 kts | 194° |
| 2026-04-25 13:34 | 13.63315 | 121.06091 | 20947 ft | 432 kts | 194° |
| 2026-04-25 13:34 | 13.60360 | 121.05419 | 20945 ft | 432 kts | 194° |
| 2026-04-25 13:35 | 13.57406 | 121.04748 | 20941 ft | 432 kts | 194° |
| 2026-04-25 13:35 | 13.54462 | 121.04107 | 20940 ft | 432 kts | 191° |
| 2026-04-25 13:35 | 13.51448 | 121.04033 | 20936 ft | 435 kts | 175° |
| 2026-04-25 13:35 | 13.48538 | 121.04765 | 20947 ft | 437 kts | 160° |
| 2026-04-25 13:36 | 13.45848 | 121.06241 | 20964 ft | 440 kts | 148° |
| 2026-04-25 13:36 | 13.43316 | 121.08027 | 20975 ft | 440 kts | 146° |
| 2026-04-25 13:36 | 13.40806 | 121.09837 | 20983 ft | 440 kts | 146° |
| 2026-04-25 13:36 | 13.38296 | 121.11634 | 20996 ft | 440 kts | 146° |
| 2026-04-25 13:37 | 13.35760 | 121.13430 | 21000 ft | 440 kts | 147° |
| 2026-04-25 13:37 | 13.33221 | 121.15210 | 21005 ft | 440 kts | 147° |
| 2026-04-25 13:37 | 13.30693 | 121.16980 | 21006 ft | 439 kts | 147° |
| 2026-04-25 13:37 | 13.28194 | 121.18729 | 21003 ft | 439 kts | 147° |
| 2026-04-25 13:38 | 13.25670 | 121.20496 | 20759 ft | 438 kts | 146° |
| 2026-04-25 13:38 | 13.23158 | 121.22257 | 20453 ft | 435 kts | 146° |
| 2026-04-25 13:38 | 13.20642 | 121.24021 | 20143 ft | 433 kts | 146° |
| 2026-04-25 13:38 | 13.18149 | 121.25768 | 19835 ft | 431 kts | 146° |
| 2026-04-25 13:39 | 13.15691 | 121.27491 | 19537 ft | 429 kts | 146° |
| 2026-04-25 13:39 | 13.13230 | 121.29215 | 19236 ft | 427 kts | 146° |
| 2026-04-25 13:39 | 13.10779 | 121.30933 | 18935 ft | 425 kts | 146° |
| 2026-04-25 13:39 | 13.08362 | 121.32626 | 18635 ft | 423 kts | 146° |
| 2026-04-25 13:40 | 13.05914 | 121.34339 | 18326 ft | 421 kts | 146° |
| 2026-04-25 13:40 | 13.03506 | 121.36024 | 18024 ft | 419 kts | 146° |
| 2026-04-25 13:40 | 13.01099 | 121.37708 | 17717 ft | 417 kts | 146° |
| 2026-04-25 13:40 | 12.98698 | 121.39388 | 17410 ft | 416 kts | 146° |
| 2026-04-25 13:41 | 12.96329 | 121.41045 | 17106 ft | 414 kts | 146° |
| 2026-04-25 13:41 | 12.93940 | 121.42717 | 16798 ft | 413 kts | 146° |
| 2026-04-25 13:41 | 12.91556 | 121.44384 | 16489 ft | 412 kts | 146° |
| 2026-04-25 13:41 | 12.89197 | 121.46034 | 16186 ft | 410 kts | 146° |
| 2026-04-25 13:42 | 12.86821 | 121.47696 | 15875 ft | 408 kts | 146° |
| 2026-04-25 13:42 | 12.84497 | 121.49320 | 15571 ft | 406 kts | 146° |
| 2026-04-25 13:42 | 12.82143 | 121.50966 | 15260 ft | 405 kts | 146° |
| 2026-04-25 13:42 | 12.79828 | 121.52582 | 14957 ft | 403 kts | 146° |
| 2026-04-25 13:43 | 12.77508 | 121.54202 | 14651 ft | 401 kts | 146° |
| 2026-04-25 13:43 | 12.75224 | 121.55796 | 14347 ft | 399 kts | 146° |
| 2026-04-25 13:43 | 12.72915 | 121.57407 | 14039 ft | 397 kts | 146° |
| 2026-04-25 13:43 | 12.70650 | 121.58988 | 13736 ft | 396 kts | 146° |
| 2026-04-25 13:44 | 12.68372 | 121.60578 | 13429 ft | 395 kts | 146° |
| 2026-04-25 13:44 | 12.66095 | 121.62167 | 13121 ft | 393 kts | 146° |
| 2026-04-25 13:44 | 12.63854 | 121.63730 | 12819 ft | 391 kts | 146° |
| 2026-04-25 13:44 | 12.61613 | 121.65292 | 12513 ft | 390 kts | 146° |
| 2026-04-25 13:45 | 12.59370 | 121.66856 | 12207 ft | 388 kts | 146° |
| 2026-04-25 13:45 | 12.57122 | 121.68422 | 11899 ft | 386 kts | 146° |
| 2026-04-25 13:45 | 12.54906 | 121.69966 | 11592 ft | 384 kts | 145° |
| 2026-04-25 13:45 | 12.52725 | 121.71486 | 11287 ft | 382 kts | 145° |
| 2026-04-25 13:46 | 12.50527 | 121.73018 | 10979 ft | 380 kts | 145° |
| 2026-04-25 13:46 | 12.48348 | 121.74536 | 10673 ft | 377 kts | 145° |
| 2026-04-25 13:46 | 12.46205 | 121.76031 | 10363 ft | 368 kts | 145° |
| 2026-04-25 13:46 | 12.44107 | 121.77492 | 10053 ft | 359 kts | 145° |
| 2026-04-25 13:47 | 12.42050 | 121.78924 | 9742 ft | 351 kts | 144° |
| 2026-04-25 13:47 | 12.40055 | 121.80311 | 9432 ft | 343 kts | 144° |
| 2026-04-25 13:47 | 12.38076 | 121.81613 | 9125 ft | 336 kts | 149° |
| 2026-04-25 13:47 | 12.36021 | 121.82686 | 8887 ft | 327 kts | 154° |
| 2026-04-25 13:48 | 12.33902 | 121.83524 | 8699 ft | 317 kts | 160° |
| 2026-04-25 13:48 | 12.31812 | 121.84170 | 8517 ft | 307 kts | 162° |
| 2026-04-25 13:48 | 12.29793 | 121.84767 | 8340 ft | 298 kts | 162° |
| 2026-04-25 13:48 | 12.27824 | 121.85347 | 8144 ft | 289 kts | 161° |
| 2026-04-25 13:49 | 12.25915 | 121.85910 | 7829 ft | 285 kts | 161° |
| 2026-04-25 13:49 | 12.23996 | 121.86478 | 7466 ft | 284 kts | 161° |
| 2026-04-25 13:49 | 12.22116 | 121.87038 | 7110 ft | 282 kts | 161° |
| 2026-04-25 13:49 | 12.20228 | 121.87598 | 6759 ft | 280 kts | 160° |
| 2026-04-25 13:50 | 12.18374 | 121.88149 | 6416 ft | 277 kts | 160° |
| 2026-04-25 13:50 | 12.16502 | 121.88705 | 6075 ft | 275 kts | 159° |
| 2026-04-25 13:50 | 12.14674 | 121.89250 | 5964 ft | 273 kts | 159° |
| 2026-04-25 13:50 | 12.12836 | 121.89800 | 5961 ft | 275 kts | 159° |
| 2026-04-25 13:51 | 12.10986 | 121.90353 | 5960 ft | 275 kts | 159° |
| 2026-04-25 13:51 | 12.09164 | 121.90896 | 5958 ft | 275 kts | 160° |
| 2026-04-25 13:51 | 12.07338 | 121.91437 | 5948 ft | 263 kts | 159° |
| 2026-04-25 13:51 | 12.05621 | 121.91943 | 5946 ft | 250 kts | 159° |
| 2026-04-25 13:52 | 12.03933 | 121.92407 | 5949 ft | 252 kts | 167° |
| 2026-04-25 13:52 | 12.02178 | 121.92246 | 5943 ft | 263 kts | 198° |
| 2026-04-25 13:52 | 12.00682 | 121.91151 | 5951 ft | 271 kts | 231° |
| 2026-04-25 13:52 | 11.99919 | 121.89392 | 5954 ft | 275 kts | 264° |
| 2026-04-25 13:53 | 12.00154 | 121.87470 | 5957 ft | 271 kts | 297° |
| 2026-04-25 13:53 | 12.01260 | 121.85995 | 5959 ft | 263 kts | 328° |
| 2026-04-25 13:53 | 12.02888 | 121.85244 | 5968 ft | 254 kts | 351° |
| 2026-04-25 13:53 | 12.04614 | 121.84792 | 5962 ft | 254 kts | 351° |
| 2026-04-25 13:54 | 12.06333 | 121.84329 | 5960 ft | 255 kts | 350° |
| 2026-04-25 13:54 | 12.08061 | 121.83838 | 5959 ft | 255 kts | 349° |
| 2026-04-25 13:54 | 12.09761 | 121.83356 | 5959 ft | 254 kts | 353° |
| 2026-04-25 13:54 | 12.11472 | 121.83407 | 5949 ft | 243 kts | 24° |
| 2026-04-25 13:55 | 12.12866 | 121.84299 | 5961 ft | 236 kts | 50° |
| 2026-04-25 13:55 | 12.13689 | 121.85719 | 5966 ft | 233 kts | 75° |
| 2026-04-25 13:55 | 12.13798 | 121.87372 | 5971 ft | 234 kts | 99° |
| 2026-04-25 13:55 | 12.13175 | 121.88898 | 5972 ft | 239 kts | 124° |
| 2026-04-25 13:56 | 12.11888 | 121.90012 | 5973 ft | 247 kts | 150° |
| 2026-04-25 13:56 | 12.10251 | 121.90571 | 5980 ft | 250 kts | 159° |
| 2026-04-25 13:56 | 12.08565 | 121.91067 | 5975 ft | 249 kts | 159° |
| 2026-04-25 13:56 | 12.06911 | 121.91560 | 5973 ft | 249 kts | 159° |
| 2026-04-25 13:57 | 12.05244 | 121.92058 | 5973 ft | 249 kts | 159° |
| 2026-04-25 13:57 | 12.04111 | 121.92393 | 5974 ft | 250 kts | 161° |
| 2026-04-25 13:57 | 12.01798 | 121.92255 | 5779 ft | 261 kts | 204° |
| 2026-04-25 13:57 | 12.00440 | 121.91028 | 5397 ft | 268 kts | 237° |
| 2026-04-25 13:58 | 11.99839 | 121.89230 | 5005 ft | 270 kts | 269° |
| 2026-04-25 13:58 | 12.00165 | 121.87376 | 4645 ft | 265 kts | 300° |
| 2026-04-25 13:58 | 12.01293 | 121.85961 | 4306 ft | 254 kts | 330° |
| 2026-04-25 13:58 | 12.02857 | 121.85262 | 4030 ft | 242 kts | 351° |
| 2026-04-25 13:59 | 12.04495 | 121.84860 | 3973 ft | 241 kts | 357° |
| 2026-04-25 13:59 | 12.06099 | 121.85053 | 3960 ft | 230 kts | 31° |
| 2026-04-25 13:59 | 12.07341 | 121.86059 | 3971 ft | 225 kts | 55° |
| 2026-04-25 13:59 | 12.08037 | 121.87469 | 3974 ft | 224 kts | 77° |
| 2026-04-25 14:00 | 12.08111 | 121.89037 | 3975 ft | 226 kts | 98° |
| 2026-04-25 14:00 | 12.07523 | 121.90530 | 3974 ft | 231 kts | 122° |
| 2026-04-25 14:00 | 12.06304 | 121.91658 | 3974 ft | 239 kts | 147° |
| 2026-04-25 14:00 | 12.04716 | 121.92240 | 3980 ft | 244 kts | 159° |
| 2026-04-25 14:01 | 12.03028 | 121.92549 | 3957 ft | 253 kts | 180° |
| 2026-04-25 14:01 | 12.01304 | 121.91865 | 3969 ft | 283 kts | 217° |
| 2026-04-25 14:01 | 12.00152 | 121.90243 | 3965 ft | 292 kts | 251° |
| 2026-04-25 14:01 | 11.99951 | 121.88172 | 3974 ft | 292 kts | 276° |
| 2026-04-25 14:02 | 12.00026 | 121.86116 | 3952 ft | 293 kts | 263° |
| 2026-04-25 14:02 | 11.99285 | 121.84197 | 3859 ft | 291 kts | 234° |
| 2026-04-25 14:02 | 11.98038 | 121.82590 | 3807 ft | 291 kts | 228° |
| 2026-04-25 14:02 | 11.97159 | 121.81517 | 3786 ft | 291 kts | 229° |
| 2026-04-25 14:03 | 11.95505 | 121.79327 | 3765 ft | 290 kts | 233° |
| 2026-04-25 14:03 | 11.94380 | 121.77692 | 3750 ft | 275 kts | 234° |
| 2026-04-25 14:03 | 11.93328 | 121.76104 | 3749 ft | 266 kts | 235° |
| 2026-04-25 14:03 | 11.92222 | 121.74613 | 3739 ft | 264 kts | 219° |
| 2026-04-25 14:04 | 11.90606 | 121.73808 | 3742 ft | 254 kts | 184° |
| 2026-04-25 14:04 | 11.88898 | 121.73934 | 3751 ft | 243 kts | 155° |
| 2026-04-25 14:04 | 11.87380 | 121.74686 | 3760 ft | 240 kts | 146° |
| 2026-04-25 14:04 | 11.85920 | 121.75506 | 3757 ft | 239 kts | 146° |
| 2026-04-25 14:05 | 11.84516 | 121.76389 | 3737 ft | 230 kts | 131° |
| 2026-04-25 14:05 | 11.83819 | 121.77724 | 3678 ft | 209 kts | 91° |
| 2026-04-25 14:05 | 11.84108 | 121.79104 | 3525 ft | 198 kts | 64° |
| 2026-04-25 14:05 | 11.84791 | 121.80297 | 3285 ft | 191 kts | 62° |
| 2026-04-25 14:06 | 11.85421 | 121.81466 | 3013 ft | 184 kts | 63° |
| 2026-04-25 14:06 | 11.86010 | 121.82595 | 2772 ft | 176 kts | 63° |
| 2026-04-25 14:06 | 11.86559 | 121.83665 | 2552 ft | 167 kts | 64° |
| 2026-04-25 14:06 | 11.87083 | 121.84701 | 2280 ft | 163 kts | 64° |
| 2026-04-25 14:07 | 11.87597 | 121.85719 | 2019 ft | 157 kts | 64° |
| 2026-04-25 14:07 | 11.88081 | 121.86681 | 1786 ft | 148 kts | 64° |
| 2026-04-25 14:07 | 11.88540 | 121.87595 | 1629 ft | 144 kts | 64° |
| 2026-04-25 14:07 | 11.88997 | 121.88506 | 1413 ft | 142 kts | 64° |
| 2026-04-25 14:08 | 11.89442 | 121.89392 | 1224 ft | 141 kts | 64° |
| 2026-04-25 14:08 | 11.89893 | 121.90290 | 1036 ft | 140 kts | 64° |
| 2026-04-25 14:08 | 11.90342 | 121.91170 | 853 ft | 140 kts | 63° |
| 2026-04-25 14:08 | 11.90789 | 121.92050 | 657 ft | 139 kts | 64° |
| 2026-04-25 14:09 | 11.91215 | 121.92932 | 478 ft | 139 kts | 65° |
| 2026-04-25 14:09 | 11.91655 | 121.93816 | 298 ft | 138 kts | 63° |
| 2026-04-25 14:09 | 11.92088 | 121.94682 | 120 ft | 136 kts | 63° |
| 2026-04-25 14:09 | 11.92383 | 121.95252 | 31 ft | 132 kts | 65° |
| 2026-04-25 14:10 | 11.92734 | 121.95949 | 29 ft | 29 kts | 66° |
| 2026-04-25 14:10 | 11.92815 | 121.96109 | 29 ft | 21 kts | 64° |
| 2026-04-25 14:10 | 11.92872 | 121.96223 | 29 ft | 7 kts | 63° |
| 2026-04-25 14:10 | 11.92897 | 121.96273 | 29 ft | 8 kts | 63° |
| 2026-04-25 14:11 | 11.92924 | 121.96326 | 29 ft | 8 kts | 63° |
| 2026-04-25 14:11 | 11.92949 | 121.96386 | 29 ft | 9 kts | 68° |
| 2026-04-25 14:11 | 11.92946 | 121.96449 | 29 ft | 9 kts | 126° |
| 2026-04-25 14:11 | 11.92889 | 121.96489 | 29 ft | 10 kts | 153° |
| 2026-04-25 14:12 | 11.92830 | 121.96519 | 29 ft | 7 kts | 163° |
| 2026-04-25 14:12 | 11.92784 | 121.96500 | 29 ft | 3 kts | 232° |
| 2026-04-25 14:12 | 11.92768 | 121.96478 | 29 ft | 4 kts | 239° |
| 2026-04-25 14:12 | 11.92753 | 121.96446 | 29 ft | 5 kts | 244° |
| 2026-04-25 14:13 | 11.92733 | 121.96407 | 29 ft | 6 kts | 242° |
| 2026-04-25 14:13 | 11.92706 | 121.96381 | 29 ft | 5 kts | 175° |
| 2026-04-25 14:13 | 11.92674 | 121.96396 | 29 ft | 3 kts | 153° |
| 2026-04-25 14:13 | 11.92668 | 121.96399 | 29 ft | 0 kts | 153° |